Terminal Aerodrome Forecast
Issued by NWS

Home | Current Version | Previous Version | Text Only | Print | Product List | Glossary On
Versions: 1 2 3 4 5 6 7 8 9 10 11 12 13 14 15 16 17
734
FTPA31 PHFO 232334
TAFHTO
TAF
PHTO 232334Z 2400/2424 02008KT P6SM SCT030 OVC060
     FM240500 24006KT P6SM SCT025 BKN060
     FM242000 07008KT P6SM SCT030 SCT060=

USA.gov is the U.S. government's official web portal to all federal, state and local government web resources and services.